createdAt,value
2022-08-05T00:00:16.116Z,3.50
2022-08-05T00:02:49.133Z,3.50
2022-08-05T00:06:02.011Z,3.63
2022-08-05T00:08:34.123Z,3.90
2022-08-05T00:11:00.365Z,4.37
2022-08-05T00:13:38.319Z,2.87
2022-08-05T00:16:08.745Z,3.57
2022-08-05T00:18:37.907Z,3.13
2022-08-05T00:21:08.563Z,2.30
2022-08-05T00:23:46.555Z,3.10
2022-08-05T00:26:22.028Z,3.10
2022-08-05T00:28:51.006Z,3.13
2022-08-05T00:31:41.440Z,2.87
2022-08-05T00:34:54.423Z,3.33
2022-08-05T00:37:10.347Z,3.00
2022-08-05T00:39:57.429Z,3.27
2022-08-05T00:42:33.474Z,2.97
2022-08-05T00:45:01.790Z,3.10
2022-08-05T00:47:53.246Z,3.13
2022-08-05T00:50:18.660Z,3.23
2022-08-05T00:52:50.668Z,3.70
2022-08-05T00:55:21.676Z,4.10
2022-08-05T00:57:58.720Z,5.00
2022-08-05T01:00:28.191Z,4.30
2022-08-05T01:02:56.910Z,2.90
2022-08-05T01:05:27.540Z,4.17
2022-08-05T01:08:39.950Z,3.50
2022-08-05T01:10:52.229Z,3.20
2022-08-05T01:13:27.558Z,5.10
2022-08-05T01:16:14.950Z,3.47
2022-08-05T01:18:56.344Z,3.40
2022-08-05T01:21:38.153Z,3.23
2022-08-05T01:24:14.465Z,3.77
2022-08-05T01:26:49.785Z,3.47
2022-08-05T01:29:23.241Z,3.50
2022-08-05T01:31:52.822Z,3.57
2022-08-05T01:34:22.264Z,3.67
2022-08-05T01:37:00.450Z,4.10
2022-08-05T01:39:45.801Z,3.43
2022-08-05T01:42:17.946Z,5.67
2022-08-05T01:44:54.165Z,3.60
2022-08-05T01:47:23.962Z,4.13
2022-08-05T01:50:01.652Z,4.73
2022-08-05T01:52:31.661Z,3.87
2022-08-05T01:55:04.359Z,7.73
2022-08-05T01:58:11.438Z,8.87
2022-08-05T02:00:30.016Z,8.80
2022-08-05T02:03:00.007Z,7.90
2022-08-05T02:05:34.147Z,4.00
2022-08-05T02:08:02.700Z,9.90
2022-08-05T02:10:33.015Z,9.67
2022-08-05T02:13:04.807Z,4.50
2022-08-05T02:15:48.338Z,5.77
2022-08-05T02:18:30.572Z,8.30
2022-08-05T02:21:06.537Z,4.70
2022-08-05T02:23:44.071Z,4.77
2022-08-05T02:26:15.342Z,4.20
2022-08-05T02:28:46.801Z,4.53
2022-08-05T02:31:21.151Z,5.80
2022-08-05T02:33:57.261Z,4.10
2022-08-05T02:36:27.893Z,8.47
2022-08-05T02:39:00.492Z,8.27
2022-08-05T02:41:36.412Z,7.87
2022-08-05T02:44:13.523Z,9.00
2022-08-05T02:46:58.765Z,8.57
2022-08-05T02:49:36.354Z,8.43
2022-08-05T02:52:07.829Z,8.87
2022-08-05T02:54:41.368Z,11.00
2022-08-05T02:58:10.664Z,8.57
2022-08-05T03:00:01.505Z,9.03
2022-08-05T03:02:33.411Z,9.50
2022-08-05T03:05:02.551Z,8.17
2022-08-05T03:08:00.704Z,9.37
2022-08-05T03:10:24.440Z,9.60
2022-08-05T03:12:54.017Z,9.20
2022-08-05T03:15:24.345Z,9.83
2022-08-05T03:17:55.838Z,8.97
2022-08-05T03:20:26.287Z,9.73
2022-08-05T03:22:55.189Z,9.53
2022-08-05T03:25:33.392Z,4.10
2022-08-05T03:28:14.242Z,8.73
2022-08-05T03:30:42.750Z,10.70
2022-08-05T03:33:12.530Z,9.20
2022-08-05T03:35:41.880Z,3.63
2022-08-05T03:38:12.375Z,9.17
2022-08-05T03:40:45.254Z,10.20
2022-08-05T03:44:09.068Z,8.70
2022-08-05T03:46:08.225Z,4.70
2022-08-05T03:48:37.968Z,4.67
2022-08-05T03:52:37.589Z,4.77
2022-08-05T03:55:00.536Z,4.17
2022-08-05T03:56:50.479Z,3.30
2022-08-05T03:59:24.664Z,4.67
2022-08-05T04:01:53.489Z,4.57
2022-08-05T04:04:28.920Z,7.63
2022-08-05T04:06:57.371Z,5.37
2022-08-05T04:09:26.188Z,6.67
2022-08-05T04:11:56.701Z,5.20
2022-08-05T04:14:30.208Z,5.20
2022-08-05T04:16:59.655Z,7.03
2022-08-05T04:19:29.535Z,5.63
2022-08-05T04:22:09.468Z,4.23
2022-08-05T04:24:44.127Z,5.13
2022-08-05T04:27:13.581Z,5.87
2022-08-05T04:29:42.292Z,5.13
2022-08-05T04:32:10.930Z,6.27
2022-08-05T04:34:42.952Z,5.57
2022-08-05T04:37:12.770Z,5.10
2022-08-05T04:39:41.440Z,6.43
2022-08-05T04:42:10.364Z,9.77
2022-08-05T04:44:39.213Z,6.20
2022-08-05T04:47:09.618Z,9.53
2022-08-05T04:50:01.898Z,5.80
2022-08-05T04:52:34.741Z,6.40
2022-08-05T04:55:14.498Z,16.47
2022-08-05T04:57:47.515Z,6.40
2022-08-05T05:00:16.871Z,20.03
2022-08-05T05:02:45.245Z,8.10
2022-08-05T05:05:26.521Z,6.37
2022-08-05T05:08:02.293Z,7.40
2022-08-05T05:10:33.358Z,6.60
2022-08-05T05:13:04.362Z,15.53
2022-08-05T05:15:57.220Z,8.50
2022-08-05T05:18:28.689Z,6.43
2022-08-05T05:21:01.674Z,11.80
2022-08-05T05:23:50.348Z,10.20
2022-08-05T05:26:19.609Z,12.30
2022-08-05T05:28:57.196Z,8.57
2022-08-05T05:31:25.500Z,8.83
2022-08-05T05:34:02.252Z,10.83
2022-08-05T05:36:31.179Z,22.90
2022-08-05T05:39:03.806Z,9.80
2022-08-05T05:41:40.415Z,12.37
2022-08-05T05:44:35.638Z,9.87
2022-08-05T05:46:58.419Z,16.40
2022-08-05T05:49:33.781Z,9.97
2022-08-05T05:52:05.920Z,10.07
2022-08-05T05:54:50.070Z,10.17
2022-08-05T05:57:19.370Z,11.07
2022-08-05T05:59:48.981Z,13.20
2022-08-05T06:02:32.870Z,16.70
2022-08-05T06:05:10.136Z,11.70
2022-08-05T06:07:57.834Z,11.53
2022-08-05T06:10:34.519Z,12.23
2022-08-05T06:13:06.132Z,9.77
2022-08-05T06:16:30.016Z,13.77
2022-08-05T06:18:30.954Z,13.23
2022-08-05T06:21:00.043Z,11.10
2022-08-05T06:23:43.509Z,12.10
2022-08-05T06:26:21.367Z,14.63
2022-08-05T06:28:50.085Z,15.70
2022-08-05T06:31:22.319Z,13.07
2022-08-05T06:34:06.985Z,27.20
2022-08-05T06:36:37.399Z,13.00
2022-08-05T06:39:27.605Z,18.67
2022-08-05T06:41:58.823Z,27.70
2022-08-05T06:44:27.888Z,28.17
2022-08-05T06:46:56.281Z,14.37
2022-08-05T06:50:00.701Z,15.87
2022-08-05T06:52:36.600Z,13.60
2022-08-05T06:55:01.085Z,25.97
2022-08-05T06:57:58.043Z,14.03
2022-08-05T07:00:24.587Z,14.87
2022-08-05T07:02:54.306Z,16.17
2022-08-05T07:05:36.855Z,15.77
2022-08-05T07:08:05.557Z,24.63
2022-08-05T07:10:33.859Z,19.30
2022-08-05T07:13:34.119Z,20.77
2022-08-05T07:17:59.178Z,19.70
2022-08-05T07:19:31.809Z,14.13
2022-08-05T07:22:03.670Z,11.33
2022-08-05T07:24:35.060Z,12.73
2022-08-05T07:27:12.410Z,12.57
2022-08-05T07:30:24.043Z,13.80
2022-08-05T07:32:36.530Z,12.27
2022-08-05T07:36:03.138Z,11.37
2022-08-05T07:37:57.067Z,10.80
2022-08-05T07:40:32.403Z,10.60
2022-08-05T07:43:04.740Z,10.90
2022-08-05T07:45:58.094Z,6.67
2022-08-05T07:49:00.634Z,9.00
2022-08-05T07:51:23.520Z,10.30
2022-08-05T07:54:04.336Z,8.93
2022-08-05T07:57:00.516Z,9.87
2022-08-05T07:59:22.063Z,11.17
2022-08-05T08:02:02.293Z,9.17
2022-08-05T08:04:38.201Z,9.80
2022-08-05T08:07:07.196Z,8.57
2022-08-05T08:09:35.758Z,7.73
2022-08-05T08:12:19.063Z,9.77
2022-08-05T08:14:54.617Z,10.30
2022-08-05T08:17:24.494Z,8.67
2022-08-05T08:20:43.336Z,9.37
2022-08-05T08:22:44.451Z,8.60
2022-08-05T08:25:16.222Z,8.07
2022-08-05T08:27:47.812Z,8.37
2022-08-05T08:30:32.374Z,7.70
2022-08-05T08:33:13.555Z,7.63
2022-08-05T08:35:53.137Z,8.27
2022-08-05T08:38:35.425Z,8.40
2022-08-05T08:41:06.561Z,7.37
2022-08-05T08:45:18.161Z,7.67
2022-08-05T08:46:24.951Z,7.60
2022-08-05T08:49:07.488Z,7.60
2022-08-05T08:52:02.821Z,7.17
2022-08-05T08:54:33.279Z,6.93
2022-08-05T08:57:05.966Z,6.53
2022-08-05T08:59:41.956Z,6.23
2022-08-05T09:02:16.750Z,6.63
2022-08-05T09:04:58.263Z,6.03
2022-08-05T09:07:39.788Z,5.73
2022-08-05T09:10:27.099Z,4.97
2022-08-05T09:12:56.790Z,5.60
2022-08-05T09:15:28.230Z,4.63
2022-08-05T09:17:58.794Z,5.37
2022-08-05T09:20:36.467Z,4.87
2022-08-05T09:23:07.836Z,5.20
2022-08-05T09:26:01.628Z,3.60
2022-08-05T09:28:32.192Z,4.20
2022-08-05T09:31:43.960Z,4.77
2022-08-05T09:33:53.824Z,4.13
2022-08-05T09:36:27.689Z,4.73
2022-08-05T09:39:03.006Z,4.23
2022-08-05T09:41:33.215Z,3.80
2022-08-05T09:44:07.419Z,4.03
2022-08-05T09:46:39.385Z,4.27
2022-08-05T09:49:54.661Z,4.10
2022-08-05T09:52:25.672Z,3.77
2022-08-05T09:54:55.323Z,4.70
2022-08-05T09:57:35.315Z,3.80
2022-08-05T10:00:11.371Z,4.50
2022-08-05T10:02:40.331Z,3.63
2022-08-05T10:05:10.692Z,3.27
2022-08-05T10:08:36.831Z,3.23
2022-08-05T10:10:39.293Z,4.17
2022-08-05T10:13:10.088Z,4.47
2022-08-05T10:15:41.334Z,4.40
2022-08-05T10:18:11.649Z,3.60
2022-08-05T10:20:41.679Z,4.00
2022-08-05T10:23:34.104Z,4.40
2022-08-05T10:26:01.434Z,5.00
2022-08-05T10:28:30.715Z,4.73
2022-08-05T10:32:48.044Z,5.20
2022-08-05T10:33:52.249Z,4.97
2022-08-05T10:36:23.549Z,4.20
2022-08-05T10:38:58.342Z,3.60
2022-08-05T10:41:46.598Z,5.10
2022-08-05T10:44:18.980Z,5.07
2022-08-05T10:46:50.592Z,7.10
2022-08-05T10:49:26.859Z,4.43
2022-08-05T10:52:03.263Z,4.80
2022-08-05T10:54:56.766Z,5.43
2022-08-05T10:57:32.325Z,5.00
2022-08-05T11:00:16.373Z,5.17
2022-08-05T11:03:25.001Z,10.37
2022-08-05T11:06:15.049Z,10.50
2022-08-05T11:08:59.429Z,4.80
2022-08-05T11:11:44.795Z,7.20
2022-08-05T11:14:42.918Z,6.50
2022-08-05T11:17:58.178Z,6.30
2022-08-05T11:20:37.555Z,5.10
2022-08-05T11:23:25.938Z,6.43
2022-08-05T11:26:08.897Z,6.47
2022-08-05T11:28:44.245Z,7.17
2022-08-05T11:31:57.202Z,5.77
2022-08-05T11:34:14.719Z,7.13
2022-08-05T11:36:52.882Z,6.40
2022-08-05T11:39:40.451Z,9.70
2022-08-05T11:42:18.711Z,7.10
2022-08-05T11:44:53.848Z,11.37
2022-08-05T11:47:48.167Z,6.90
2022-08-05T11:50:14.124Z,7.47
2022-08-05T11:52:44.126Z,11.30
2022-08-05T11:55:16.461Z,7.37
2022-08-05T11:58:09.711Z,9.80
2022-08-05T12:00:38.319Z,6.40
2022-08-05T12:03:23.977Z,6.63
2022-08-05T12:06:00.344Z,6.70
2022-08-05T12:08:31.739Z,6.87
2022-08-05T12:11:05.479Z,7.30
2022-08-05T12:13:49.631Z,7.40
2022-08-05T12:16:25.336Z,6.50
2022-08-05T12:18:54.082Z,6.50
2022-08-05T12:21:23.929Z,6.67
2022-08-05T12:23:56.587Z,6.17
2022-08-05T12:26:25.055Z,6.50
2022-08-05T12:28:54.322Z,7.10
2022-08-05T12:31:33.067Z,6.60
2022-08-05T12:34:20.565Z,7.33
2022-08-05T12:36:53.202Z,5.60
2022-08-05T12:39:21.673Z,6.50
2022-08-05T12:41:57.894Z,6.10
2022-08-05T12:44:33.837Z,5.40
2022-08-05T12:47:04.354Z,7.60
2022-08-05T12:50:01.959Z,5.70
2022-08-05T12:52:38.673Z,5.77
2022-08-05T12:55:21.967Z,5.70
2022-08-05T12:58:49.373Z,5.60
2022-08-05T13:02:01.452Z,5.73
2022-08-05T13:03:34.223Z,6.30
2022-08-05T13:06:10.526Z,5.97
2022-08-05T13:08:40.403Z,6.63
2022-08-05T13:11:08.943Z,6.03
2022-08-05T13:14:05.202Z,7.20
2022-08-05T13:16:28.910Z,5.93
2022-08-05T13:18:59.144Z,5.87
2022-08-05T13:21:28.433Z,7.20
2022-08-05T13:24:08.561Z,7.10
2022-08-05T13:26:37.512Z,5.17
2022-08-05T13:29:06.210Z,4.80
2022-08-05T13:32:04.101Z,5.80
2022-08-05T13:34:26.218Z,5.00
2022-08-05T13:36:54.867Z,5.27
2022-08-05T13:40:14.030Z,5.27
2022-08-05T13:42:13.948Z,4.50
2022-08-05T13:44:45.907Z,4.80
2022-08-05T13:47:36.113Z,4.90
2022-08-05T13:50:08.518Z,3.90
2022-08-05T13:52:38.682Z,4.37
2022-08-05T13:55:10.000Z,4.53
2022-08-05T13:57:50.851Z,4.07
2022-08-05T14:00:26.968Z,5.00
2022-08-05T14:02:56.228Z,3.87
2022-08-05T14:05:48.463Z,4.40
2022-08-05T14:08:21.335Z,4.10
2022-08-05T14:10:59.661Z,4.53
2022-08-05T14:13:32.224Z,3.60
2022-08-05T14:16:08.774Z,5.50
2022-08-05T14:18:39.956Z,4.20
2022-08-05T14:22:06.984Z,4.67
2022-08-05T14:24:00.659Z,4.33
2022-08-05T14:26:36.969Z,5.00
2022-08-05T14:29:16.493Z,4.30
2022-08-05T14:32:02.630Z,4.10
2022-08-05T14:34:35.664Z,3.70
2022-08-05T14:37:05.556Z,4.63
2022-08-05T14:39:49.335Z,3.50
2022-08-05T14:42:22.911Z,4.10
2022-08-05T14:44:53.305Z,3.87
2022-08-05T14:48:04.066Z,3.50
2022-08-05T14:50:18.293Z,3.80
2022-08-05T14:52:58.420Z,3.17
2022-08-05T14:55:28.749Z,5.07
2022-08-05T14:58:10.850Z,3.80
2022-08-05T15:00:57.927Z,3.40
2022-08-05T15:03:27.404Z,2.80
2022-08-05T15:06:08.127Z,3.40
2022-08-05T15:08:59.553Z,3.40
2022-08-05T15:11:52.656Z,2.87
2022-08-05T15:14:35.066Z,3.50
2022-08-05T15:17:20.835Z,3.47
2022-08-05T15:19:57.514Z,2.83
2022-08-05T15:22:27.226Z,2.83
2022-08-05T15:24:59.065Z,2.73
2022-08-05T15:27:36.077Z,2.60
2022-08-05T15:30:04.605Z,2.87
2022-08-05T15:32:33.187Z,2.73
2022-08-05T15:35:09.805Z,2.50
2022-08-05T15:38:08.752Z,3.03
2022-08-05T15:40:59.777Z,2.60
2022-08-05T15:43:20.175Z,2.90
2022-08-05T15:46:00.078Z,3.17
2022-08-05T15:48:29.642Z,2.83
2022-08-05T15:51:03.294Z,2.43
2022-08-05T15:53:38.485Z,2.53
2022-08-05T15:56:20.600Z,2.27
2022-08-05T15:58:53.262Z,2.57
2022-08-05T16:01:29.534Z,2.23
2022-08-05T16:04:10.435Z,2.23
2022-08-05T16:06:40.186Z,2.37
2022-08-05T16:09:10.683Z,2.33
2022-08-05T16:11:43.457Z,1.90
2022-08-05T16:14:17.190Z,1.77
2022-08-05T16:16:46.805Z,2.47
2022-08-05T16:20:02.369Z,2.50
2022-08-05T16:22:10.588Z,2.00
2022-08-05T16:24:51.240Z,1.53
2022-08-05T16:27:46.793Z,2.00
2022-08-05T16:30:26.415Z,2.40
2022-08-05T16:32:57.911Z,2.00
2022-08-05T16:35:32.400Z,2.67
2022-08-05T16:38:18.822Z,1.93
2022-08-05T16:40:59.572Z,1.70
2022-08-05T16:43:33.999Z,1.80
2022-08-05T16:46:13.137Z,2.50
2022-08-05T16:48:53.347Z,1.83
2022-08-05T16:51:24.526Z,1.23
2022-08-05T16:54:05.064Z,1.90
2022-08-05T16:56:41.876Z,2.33
2022-08-05T16:59:16.778Z,1.60
2022-08-05T17:01:54.043Z,1.57
2022-08-05T17:04:26.286Z,1.57
2022-08-05T17:06:56.922Z,1.57
2022-08-05T17:09:28.331Z,1.70
2022-08-05T17:11:59.796Z,1.87
2022-08-05T17:14:37.515Z,2.17
2022-08-05T17:17:15.029Z,2.30
2022-08-05T17:19:45.286Z,1.43
2022-08-05T17:22:24.723Z,1.97
2022-08-05T17:24:57.866Z,1.40
2022-08-05T17:27:27.480Z,2.00
2022-08-05T17:30:03.708Z,1.60
2022-08-05T17:32:34.675Z,1.77
2022-08-05T17:35:03.977Z,1.47
2022-08-05T17:37:40.126Z,1.50
2022-08-05T17:40:12.170Z,1.40
2022-08-05T17:42:42.863Z,1.67
2022-08-05T17:45:22.032Z,1.53
2022-08-05T17:47:54.616Z,1.20
2022-08-05T17:50:29.585Z,1.60
2022-08-05T17:53:00.376Z,1.30
2022-08-05T17:55:37.912Z,1.20
2022-08-05T17:58:09.342Z,1.10
2022-08-05T18:00:39.942Z,1.50
2022-08-05T18:03:23.763Z,1.33
2022-08-05T18:06:04.400Z,1.27
2022-08-05T18:08:33.997Z,1.40
2022-08-05T18:11:03.094Z,1.33
2022-08-05T18:13:36.673Z,1.00
2022-08-05T18:16:09.556Z,1.00
2022-08-05T18:18:42.096Z,1.47
2022-08-05T18:21:21.114Z,1.70
2022-08-05T18:23:53.748Z,1.33
2022-08-05T18:26:29.375Z,1.30
2022-08-05T18:29:00.461Z,1.30
2022-08-05T18:31:33.090Z,1.10
2022-08-05T18:34:03.702Z,1.40
2022-08-05T18:36:35.964Z,1.40
2022-08-05T18:39:09.587Z,1.13
2022-08-05T18:41:57.226Z,1.90
2022-08-05T18:44:35.084Z,1.30
2022-08-05T18:47:05.529Z,1.07
2022-08-05T18:49:58.078Z,1.80
2022-08-05T18:52:35.982Z,1.53
2022-08-05T18:55:05.529Z,1.37
2022-08-05T18:57:43.148Z,1.60
2022-08-05T19:00:20.476Z,1.40
2022-08-05T19:02:51.634Z,1.40
2022-08-05T19:06:12.425Z,1.47
2022-08-05T19:08:13.499Z,1.10
2022-08-05T19:10:42.118Z,1.40
2022-08-05T19:13:12.315Z,1.37
2022-08-05T19:15:56.875Z,1.23
2022-08-05T19:18:30.154Z,1.10
2022-08-05T19:20:59.789Z,1.20
2022-08-05T19:24:05.319Z,1.47
2022-08-05T19:26:19.702Z,1.10
2022-08-05T19:28:47.993Z,1.13
2022-08-05T19:31:17.842Z,1.27
2022-08-05T19:33:56.711Z,1.40
2022-08-05T19:36:25.726Z,1.20
2022-08-05T19:38:55.139Z,1.23
2022-08-05T19:42:05.690Z,1.63
2022-08-05T19:44:18.705Z,1.10
2022-08-05T19:46:47.384Z,1.07
2022-08-05T19:49:20.012Z,1.20
2022-08-05T19:52:05.861Z,1.30
2022-08-05T19:54:37.274Z,1.90
2022-08-05T19:57:09.256Z,0.90
2022-08-05T19:59:59.598Z,1.07
2022-08-05T20:02:27.696Z,1.10
2022-08-05T20:04:58.840Z,1.33
2022-08-05T20:07:48.347Z,1.03
2022-08-05T20:10:16.771Z,1.30
2022-08-05T20:12:45.940Z,1.40
2022-08-05T20:15:23.454Z,1.77
2022-08-05T20:18:10.950Z,1.30
2022-08-05T20:20:56.170Z,1.30
2022-08-05T20:23:40.656Z,1.23
2022-08-05T20:26:15.961Z,1.10
2022-08-05T20:28:48.003Z,1.10
2022-08-05T20:31:16.869Z,1.23
2022-08-05T20:33:45.600Z,1.67
2022-08-05T20:36:17.895Z,1.40
2022-08-05T20:38:54.411Z,1.10
2022-08-05T20:41:27.483Z,1.50
2022-08-05T20:44:17.654Z,1.23
2022-08-05T20:46:57.005Z,2.40
2022-08-05T20:49:26.393Z,1.60
2022-08-05T20:51:57.225Z,1.23
2022-08-05T20:54:55.403Z,1.10
2022-08-05T20:57:42.050Z,1.30
2022-08-05T21:00:20.320Z,1.40
2022-08-05T21:02:57.119Z,1.40
2022-08-05T21:05:38.045Z,1.43
2022-08-05T21:08:15.894Z,1.60
2022-08-05T21:10:48.440Z,1.83
2022-08-05T21:13:36.724Z,1.30
2022-08-05T21:16:05.399Z,1.33
2022-08-05T21:18:34.041Z,1.67
2022-08-05T21:21:04.081Z,1.20
2022-08-05T21:23:37.057Z,1.30
2022-08-05T21:26:12.629Z,1.20
2022-08-05T21:28:47.869Z,1.53
2022-08-05T21:31:19.273Z,1.33
2022-08-05T21:33:49.359Z,1.20
2022-08-05T21:36:19.393Z,1.87
2022-08-05T21:38:59.533Z,1.20
2022-08-05T21:41:32.988Z,1.30
2022-08-05T21:44:04.108Z,1.50
2022-08-05T21:46:34.594Z,1.30
2022-08-05T21:49:04.756Z,1.30
2022-08-05T21:52:22.106Z,1.13
2022-08-05T21:54:27.974Z,1.30
2022-08-05T21:57:29.214Z,1.70
2022-08-05T22:00:03.980Z,1.43
2022-08-05T22:02:34.812Z,1.43
2022-08-05T22:05:04.341Z,1.70
2022-08-05T22:07:40.200Z,1.50
2022-08-05T22:10:25.553Z,1.13
2022-08-05T22:12:55.510Z,1.40
2022-08-05T22:16:02.035Z,1.17
2022-08-05T22:18:14.935Z,1.30
2022-08-05T22:20:44.213Z,1.60
2022-08-05T22:24:03.359Z,1.70
2022-08-05T22:26:37.997Z,1.73
2022-08-05T22:29:07.032Z,1.40
2022-08-05T22:31:44.854Z,1.17
2022-08-05T22:34:25.625Z,1.37
2022-08-05T22:36:58.411Z,2.20
2022-08-05T22:39:33.051Z,1.80
2022-08-05T22:42:11.631Z,1.50
2022-08-05T22:44:41.124Z,1.80
2022-08-05T22:47:29.985Z,2.07
2022-08-05T22:50:23.114Z,1.40
2022-08-05T22:52:48.028Z,1.97
2022-08-05T22:55:19.197Z,1.87
2022-08-05T22:57:51.028Z,1.87
2022-08-05T23:00:20.779Z,1.43
2022-08-05T23:02:50.313Z,1.63
2022-08-05T23:05:19.085Z,1.87
2022-08-05T23:07:50.767Z,1.63
2022-08-05T23:10:20.264Z,2.30
2022-08-05T23:12:51.600Z,2.10
2022-08-05T23:15:29.084Z,1.57
2022-08-05T23:18:00.823Z,1.70
2022-08-05T23:20:30.420Z,1.73
2022-08-05T23:22:58.981Z,2.40
2022-08-05T23:25:53.302Z,1.97
2022-08-05T23:28:17.344Z,2.10
2022-08-05T23:30:53.349Z,2.00
2022-08-05T23:34:02.702Z,1.80
2022-08-05T23:36:13.657Z,2.20
2022-08-05T23:38:42.807Z,1.63
2022-08-05T23:41:11.830Z,2.37
2022-08-05T23:44:05.366Z,2.13
2022-08-05T23:46:30.952Z,1.80
2022-08-05T23:49:01.946Z,2.70
2022-08-05T23:52:01.607Z,3.07
2022-08-05T23:54:36.513Z,3.37
2022-08-05T23:57:06.979Z,3.03
